createdAt,value
2023-05-09T00:00:20.527Z,97647.03
2023-05-09T00:02:48.845Z,97653.13
2023-05-09T00:05:17.917Z,97639.81
2023-05-09T00:07:46.127Z,97647.38
2023-05-09T00:10:16.254Z,97641.84
2023-05-09T00:12:44.901Z,97647.09
2023-05-09T00:15:14.013Z,97648.75
2023-05-09T00:17:42.562Z,97642.84
2023-05-09T00:20:12.593Z,97638.66
2023-05-09T00:22:41.696Z,97641.25
2023-05-09T00:25:12.310Z,97638.75
2023-05-09T00:27:42.028Z,97636.28
2023-05-09T00:30:10.825Z,97640.91
2023-05-09T00:32:40.386Z,97638.50
2023-05-09T00:35:10.285Z,97638.88
2023-05-09T00:37:38.979Z,97634.03
2023-05-09T00:40:09.309Z,97625.34
2023-05-09T00:42:38.266Z,97630.63
2023-05-09T00:45:10.163Z,97630.53
2023-05-09T00:47:42.646Z,97628.22
2023-05-09T00:50:11.585Z,97628.53
2023-05-09T00:52:40.411Z,97634.22
2023-05-09T00:55:09.976Z,97630.16
2023-05-09T00:57:38.498Z,97624.66
2023-05-09T01:00:13.485Z,97626.91
2023-05-09T01:02:43.247Z,97624.28
2023-05-09T01:05:12.667Z,97623.47
2023-05-09T01:07:47.655Z,97622.97
2023-05-09T01:10:24.379Z,97613.13
2023-05-09T01:13:00.443Z,97607.53
2023-05-09T01:15:35.462Z,97611.31
2023-05-09T01:18:10.502Z,97604.00
2023-05-09T01:20:45.692Z,97604.06
2023-05-09T01:23:36.991Z,97603.56
2023-05-09T01:26:07.382Z,97597.72
2023-05-09T01:28:52.949Z,97588.13
2023-05-09T01:31:24.828Z,97590.03
2023-05-09T01:33:58.398Z,97590.38
2023-05-09T01:36:33.216Z,97593.75
2023-05-09T01:39:04.357Z,97598.75
2023-05-09T01:41:37.489Z,97594.06
2023-05-09T01:44:09.629Z,97586.63
2023-05-09T01:46:40.576Z,97587.66
2023-05-09T01:49:10.439Z,97585.25
2023-05-09T01:51:42.942Z,97577.88
2023-05-09T01:54:13.842Z,97585.25
2023-05-09T01:56:44.100Z,97577.88
2023-05-09T01:59:16.475Z,97577.38
2023-05-09T02:01:48.411Z,97570.22
2023-05-09T02:04:19.201Z,97571.03
2023-05-09T02:06:51.986Z,97571.13
2023-05-09T02:09:21.933Z,97574.38
2023-05-09T02:11:50.551Z,97569.28
2023-05-09T02:14:19.143Z,97560.28
2023-05-09T02:16:49.867Z,97560.13
2023-05-09T02:19:18.833Z,97554.03
2023-05-09T02:21:47.111Z,97549.47
2023-05-09T02:24:15.724Z,97558.97
2023-05-09T02:26:44.636Z,97559.03
2023-05-09T02:29:13.653Z,97554.38
2023-05-09T02:31:43.938Z,97552.66
2023-05-09T02:34:15.027Z,97559.13
2023-05-09T02:36:43.847Z,97560.53
2023-05-09T02:39:12.184Z,97550.31
2023-05-09T02:41:40.480Z,97550.63
2023-05-09T02:44:08.849Z,97547.47
2023-05-09T02:46:37.081Z,97545.44
2023-05-09T02:49:05.504Z,97546.88
2023-05-09T02:51:35.215Z,97543.47
2023-05-09T02:54:03.673Z,97550.53
2023-05-09T02:56:32.328Z,97549.13
2023-05-09T02:59:00.545Z,97539.03
2023-05-09T03:01:28.882Z,97543.19
2023-05-09T03:03:57.453Z,97541.63
2023-05-09T03:06:26.663Z,97545.72
2023-05-09T03:08:56.848Z,97542.31
2023-05-09T03:11:26.679Z,97539.06
2023-05-09T03:13:55.048Z,97542.13
2023-05-09T03:16:24.066Z,97538.63
2023-05-09T03:18:53.106Z,97537.72
2023-05-09T03:21:21.566Z,97539.22
2023-05-09T03:23:50.297Z,97533.38
2023-05-09T03:26:20.164Z,97532.81
2023-05-09T03:28:49.074Z,97535.88
2023-05-09T03:31:17.693Z,97534.81
2023-05-09T03:33:46.189Z,97521.06
2023-05-09T03:36:14.405Z,97528.13
2023-05-09T03:38:46.018Z,97532.81
2023-05-09T03:41:16.580Z,97534.88
2023-05-09T03:43:48.486Z,97529.28
2023-05-09T03:46:17.580Z,97526.22
2023-05-09T03:48:49.496Z,97532.84
2023-05-09T03:51:18.696Z,97521.69
2023-05-09T03:53:48.082Z,97527.53
2023-05-09T03:56:16.824Z,97531.03
2023-05-09T03:58:52.598Z,97531.88
2023-05-09T04:01:22.131Z,97531.31
2023-05-09T04:03:50.612Z,97529.66
2023-05-09T04:06:18.755Z,97529.66
2023-05-09T04:08:49.926Z,97529.97
2023-05-09T04:11:19.156Z,97525.78
2023-05-09T04:13:48.840Z,97532.53
2023-05-09T04:16:28.090Z,97527.94
2023-05-09T04:18:56.878Z,97530.75
2023-05-09T04:21:29.135Z,97526.50
2023-05-09T04:24:00.977Z,97535.56
2023-05-09T04:26:39.529Z,97529.69
2023-05-09T04:29:11.625Z,97530.09
2023-05-09T04:31:42.075Z,97529.91
2023-05-09T04:34:13.644Z,97522.78
2023-05-09T04:36:42.346Z,97529.84
2023-05-09T04:39:11.212Z,97534.75
2023-05-09T04:41:44.552Z,97529.84
2023-05-09T04:44:13.942Z,97527.00
2023-05-09T04:46:44.686Z,97533.75
2023-05-09T04:49:13.783Z,97526.38
2023-05-09T04:51:44.195Z,97529.03
2023-05-09T04:54:12.775Z,97528.69
2023-05-09T04:56:42.500Z,97524.88
2023-05-09T04:59:10.937Z,97524.69
2023-05-09T05:01:39.522Z,97527.00
2023-05-09T05:04:10.338Z,97528.09
2023-05-09T05:06:38.802Z,97519.03
2023-05-09T05:09:07.884Z,97530.09
2023-05-09T05:11:36.366Z,97519.47
2023-05-09T05:14:06.147Z,97523.22
2023-05-09T05:17:01.045Z,97526.00
2023-05-09T05:19:31.227Z,97520.22
2023-05-09T05:22:00.042Z,97517.03
2023-05-09T05:24:29.488Z,97515.63
2023-05-09T05:26:57.985Z,97512.66
2023-05-09T05:29:27.553Z,97519.31
2023-05-09T05:31:56.318Z,97516.00
2023-05-09T05:34:24.797Z,97517.59
2023-05-09T05:36:54.851Z,97519.91
2023-05-09T05:39:24.136Z,97516.78
2023-05-09T05:41:54.320Z,97518.25
2023-05-09T05:44:22.742Z,97512.53
2023-05-09T05:46:51.242Z,97513.19
2023-05-09T05:49:19.800Z,97507.59
2023-05-09T05:51:48.330Z,97510.38
2023-05-09T05:54:18.751Z,97509.75
2023-05-09T05:56:47.134Z,97508.31
2023-05-09T05:59:16.390Z,97504.78
2023-05-09T06:01:45.135Z,97500.91
2023-05-09T06:04:13.840Z,97504.34
2023-05-09T06:06:44.235Z,97496.53
2023-05-09T06:09:12.649Z,97494.97
2023-05-09T06:11:43.143Z,97494.56
2023-05-09T06:14:11.439Z,97485.59
2023-05-09T06:16:41.705Z,97494.72
2023-05-09T06:19:10.410Z,97498.97
2023-05-09T06:21:38.953Z,97486.59
2023-05-09T06:24:14.409Z,97489.66
2023-05-09T06:26:51.558Z,97496.56
2023-05-09T06:29:20.230Z,97494.41
2023-05-09T06:31:50.070Z,97488.81
2023-05-09T06:34:18.200Z,97484.88
2023-05-09T06:36:46.607Z,97480.41
2023-05-09T06:39:14.886Z,97476.84
2023-05-09T06:41:43.729Z,97471.72
2023-05-09T06:44:13.456Z,97477.59
2023-05-09T06:46:41.831Z,97479.75
2023-05-09T06:49:11.374Z,97472.06
2023-05-09T06:51:40.114Z,97469.00
2023-05-09T06:54:08.697Z,97460.84
2023-05-09T06:56:37.804Z,97452.31
2023-05-09T06:59:06.194Z,97462.16
2023-05-09T07:01:36.052Z,97453.53
2023-05-09T07:04:04.477Z,97448.91
2023-05-09T07:06:33.306Z,97449.94
2023-05-09T07:09:01.969Z,97445.00
2023-05-09T07:11:30.136Z,97438.78
2023-05-09T07:13:58.457Z,97433.38
2023-05-09T07:16:28.720Z,97436.41
2023-05-09T07:18:58.638Z,97438.59
2023-05-09T07:21:27.175Z,97421.38
2023-05-09T07:23:55.589Z,97415.31
2023-05-09T07:26:24.499Z,97418.50
2023-05-09T07:28:53.710Z,97419.00
2023-05-09T07:31:22.309Z,97402.84
2023-05-09T07:33:50.731Z,97406.00
2023-05-09T07:36:20.577Z,97398.34
2023-05-09T07:38:50.617Z,97395.38
2023-05-09T07:41:18.761Z,97388.00
2023-05-09T07:43:47.726Z,97391.94
2023-05-09T07:46:16.246Z,97393.66
2023-05-09T07:48:44.715Z,97379.53
2023-05-09T07:51:13.161Z,97375.97
2023-05-09T07:53:42.791Z,97375.66
2023-05-09T07:56:12.012Z,97373.28
2023-05-09T07:58:40.480Z,97371.50
2023-05-09T08:01:09.234Z,97366.38
2023-05-09T08:03:37.555Z,97365.66
2023-05-09T08:06:05.978Z,97364.88
2023-05-09T08:08:34.622Z,97366.25
2023-05-09T08:11:06.220Z,97359.28
2023-05-09T08:13:34.721Z,97359.19
2023-05-09T08:16:03.883Z,97360.84
2023-05-09T08:18:32.600Z,97352.88
2023-05-09T08:21:01.405Z,97352.69
2023-05-09T08:23:30.472Z,97345.06
2023-05-09T08:25:59.299Z,97350.13
2023-05-09T08:28:30.160Z,97353.06
2023-05-09T08:30:58.914Z,97350.44
2023-05-09T08:33:27.017Z,97343.22
2023-05-09T08:35:57.083Z,97339.41
2023-05-09T08:38:25.774Z,97327.69
2023-05-09T08:40:53.958Z,97342.81
2023-05-09T08:43:25.498Z,97341.16
2023-05-09T08:46:00.583Z,97330.22
2023-05-09T08:48:29.786Z,97325.28
2023-05-09T08:50:59.434Z,97325.72
2023-05-09T08:53:28.316Z,97322.59
2023-05-09T08:55:56.926Z,97327.59
2023-05-09T08:58:25.280Z,97323.41
2023-05-09T09:00:56.613Z,97323.09
2023-05-09T09:03:26.423Z,97320.97
2023-05-09T09:05:56.547Z,97314.56
2023-05-09T09:08:25.665Z,97319.91
2023-05-09T09:10:55.351Z,97311.63
2023-05-09T09:13:24.493Z,97305.44
2023-05-09T09:15:57.628Z,97305.78
2023-05-09T09:18:34.352Z,97308.97
2023-05-09T09:21:08.382Z,97312.78
2023-05-09T09:23:41.061Z,97306.47
2023-05-09T09:26:09.138Z,97308.09
2023-05-09T09:28:37.723Z,97298.00
2023-05-09T09:31:23.900Z,97289.88
2023-05-09T09:33:52.597Z,97288.91
2023-05-09T09:36:28.052Z,97289.91
2023-05-09T09:39:01.487Z,97288.59
2023-05-09T09:41:34.012Z,97290.19
2023-05-09T09:44:08.896Z,97296.84
2023-05-09T09:46:54.715Z,97297.41
2023-05-09T09:49:24.374Z,97280.88
2023-05-09T09:52:16.922Z,97298.66
2023-05-09T09:54:45.952Z,97289.53
2023-05-09T09:57:33.641Z,97285.25
2023-05-09T10:00:02.253Z,97282.66
2023-05-09T10:02:34.362Z,97288.25
2023-05-09T10:05:11.894Z,97288.75
2023-05-09T10:07:40.266Z,97287.41
2023-05-09T10:10:10.268Z,97287.06
2023-05-09T10:12:39.162Z,97283.91
2023-05-09T10:15:10.900Z,97280.81
2023-05-09T10:17:40.837Z,97270.28
2023-05-09T10:20:11.504Z,97270.06
2023-05-09T10:22:41.216Z,97258.69
2023-05-09T10:25:15.992Z,97254.31
2023-05-09T10:27:47.652Z,97251.50
2023-05-09T10:30:19.325Z,97250.91
2023-05-09T10:32:55.253Z,97245.53
2023-05-09T10:35:28.054Z,97241.47
2023-05-09T10:37:58.218Z,97248.03
2023-05-09T10:40:28.807Z,97240.66
2023-05-09T10:42:57.468Z,97239.75
2023-05-09T10:45:26.148Z,97231.88
2023-05-09T10:47:57.257Z,97225.75
2023-05-09T10:50:26.531Z,97233.16
2023-05-09T10:53:08.960Z,97226.59
2023-05-09T10:55:38.744Z,97220.78
2023-05-09T10:58:25.370Z,97221.28
2023-05-09T11:00:57.133Z,97219.00
2023-05-09T11:03:28.952Z,97216.03
2023-05-09T11:05:58.910Z,97217.63
2023-05-09T11:08:28.180Z,97213.44
2023-05-09T11:11:00.636Z,97203.41
2023-05-09T11:13:33.838Z,97204.44
2023-05-09T11:16:12.541Z,97210.16
2023-05-09T11:18:55.187Z,97196.63
2023-05-09T11:21:23.775Z,97186.09
2023-05-09T11:23:55.058Z,97183.50
2023-05-09T11:26:24.772Z,97183.75
2023-05-09T11:28:55.346Z,97175.84
2023-05-09T11:31:23.557Z,97170.63
2023-05-09T11:33:58.511Z,97168.38
2023-05-09T11:36:33.776Z,97178.22
2023-05-09T11:39:05.244Z,97156.13
2023-05-09T11:41:41.257Z,97160.25
2023-05-09T11:44:17.034Z,97151.22
2023-05-09T11:46:47.660Z,97143.53
2023-05-09T11:49:17.169Z,97154.44
2023-05-09T11:51:46.724Z,97143.34
2023-05-09T11:54:15.214Z,97140.09
2023-05-09T11:56:44.362Z,97142.38
2023-05-09T11:59:15.412Z,97141.63
2023-05-09T12:01:44.165Z,97140.06
2023-05-09T12:04:12.589Z,97126.09
2023-05-09T12:06:41.334Z,97117.06
2023-05-09T12:09:12.144Z,97127.47
2023-05-09T12:11:40.460Z,97128.66
2023-05-09T12:14:09.026Z,97120.59
2023-05-09T12:16:46.284Z,97109.50
2023-05-09T12:19:15.476Z,97106.31
2023-05-09T12:21:43.884Z,97090.78
2023-05-09T12:24:13.708Z,97106.22
2023-05-09T12:26:41.862Z,97103.63
2023-05-09T12:29:10.425Z,97101.38
2023-05-09T12:31:38.915Z,97094.56
2023-05-09T12:34:08.063Z,97084.00
2023-05-09T12:36:37.398Z,97087.34
2023-05-09T12:39:10.626Z,97079.28
2023-05-09T12:42:00.611Z,97085.34
2023-05-09T12:44:30.721Z,97081.06
2023-05-09T12:47:00.760Z,97089.22
2023-05-09T12:49:29.626Z,97070.09
2023-05-09T12:52:00.299Z,97068.22
2023-05-09T12:54:31.174Z,97060.44
2023-05-09T12:57:00.800Z,97053.53
2023-05-09T12:59:30.477Z,97061.88
2023-05-09T13:02:00.861Z,97053.91
2023-05-09T13:04:29.819Z,97057.50
2023-05-09T13:07:00.230Z,97050.88
2023-05-09T13:09:28.967Z,97044.94
2023-05-09T13:11:59.141Z,97037.81
2023-05-09T13:14:29.072Z,97038.09
2023-05-09T13:16:57.685Z,97042.66
2023-05-09T13:19:26.205Z,97035.78
2023-05-09T13:21:56.878Z,97032.75
2023-05-09T13:24:25.281Z,97030.13
2023-05-09T13:26:53.341Z,97023.28
2023-05-09T13:29:21.569Z,97029.75
2023-05-09T13:31:51.380Z,97027.00
2023-05-09T13:34:20.036Z,97033.72
2023-05-09T13:36:48.249Z,97025.94
2023-05-09T13:39:17.075Z,97007.91
2023-05-09T13:41:45.967Z,97011.47
2023-05-09T13:44:15.860Z,97013.16
2023-05-09T13:46:44.334Z,97002.00
2023-05-09T13:49:15.071Z,97006.16
2023-05-09T13:51:43.349Z,97004.31
2023-05-09T13:54:17.207Z,96999.97
2023-05-09T13:56:46.003Z,96989.53
2023-05-09T13:59:15.751Z,96986.13
2023-05-09T14:01:44.593Z,96988.97
2023-05-09T14:04:14.809Z,96989.22
2023-05-09T14:06:48.216Z,96982.44
2023-05-09T14:09:17.446Z,96978.94
2023-05-09T14:11:45.849Z,96972.06
2023-05-09T14:14:14.341Z,96980.34
2023-05-09T14:16:42.723Z,96967.78
2023-05-09T14:19:11.455Z,96966.59
2023-05-09T14:21:42.778Z,96958.69
2023-05-09T14:24:15.036Z,96958.91
2023-05-09T14:26:45.494Z,96961.22
2023-05-09T14:29:14.052Z,96948.59
2023-05-09T14:31:42.585Z,96946.44
2023-05-09T14:34:13.259Z,96942.69
2023-05-09T14:36:43.584Z,96944.31
2023-05-09T14:39:11.893Z,96931.50
2023-05-09T14:41:40.770Z,96939.22
2023-05-09T14:44:09.025Z,96929.94
2023-05-09T14:46:38.009Z,96919.34
2023-05-09T14:49:09.744Z,96918.25
2023-05-09T14:51:38.002Z,96928.38
2023-05-09T14:54:08.425Z,96920.47
2023-05-09T14:56:36.951Z,96917.81
2023-05-09T14:59:05.274Z,96909.69
2023-05-09T15:01:34.240Z,96912.28
2023-05-09T15:04:02.682Z,96906.84
2023-05-09T15:06:31.078Z,96905.28
2023-05-09T15:08:59.901Z,96891.59
2023-05-09T15:11:36.410Z,96890.81
2023-05-09T15:14:15.179Z,96884.16
2023-05-09T15:16:44.358Z,96898.28
2023-05-09T15:19:12.874Z,96888.28
2023-05-09T15:21:41.530Z,96889.91
2023-05-09T15:24:10.734Z,96889.75
2023-05-09T15:26:40.490Z,96882.00
2023-05-09T15:29:09.110Z,96887.97
2023-05-09T15:31:38.398Z,96877.59
2023-05-09T15:34:08.054Z,96876.94
2023-05-09T15:36:36.383Z,96865.94
2023-05-09T15:39:05.208Z,96868.16
2023-05-09T15:41:34.320Z,96864.41
2023-05-09T15:44:04.395Z,96871.72
2023-05-09T15:46:34.213Z,96856.63
2023-05-09T15:49:03.285Z,96859.75
2023-05-09T15:51:32.751Z,96855.69
2023-05-09T15:54:01.380Z,96858.16
2023-05-09T15:56:29.786Z,96854.50
2023-05-09T15:58:59.658Z,96852.59
2023-05-09T16:01:33.947Z,96847.13
2023-05-09T16:04:05.467Z,96838.44
2023-05-09T16:06:34.558Z,96840.19
2023-05-09T16:09:04.722Z,96837.44
2023-05-09T16:11:33.235Z,96835.94
2023-05-09T16:14:01.662Z,96834.50
2023-05-09T16:16:31.414Z,96837.50
2023-05-09T16:19:00.684Z,96825.50
2023-05-09T16:21:29.649Z,96830.41
2023-05-09T16:23:59.029Z,96825.66
2023-05-09T16:26:27.181Z,96828.34
2023-05-09T16:28:55.648Z,96827.56
2023-05-09T16:31:26.872Z,96818.28
2023-05-09T16:33:58.864Z,96823.47
2023-05-09T16:36:29.145Z,96812.59
2023-05-09T16:38:57.370Z,96807.78
2023-05-09T16:41:25.950Z,96804.41
2023-05-09T16:43:54.328Z,96801.09
2023-05-09T16:46:22.858Z,96798.72
2023-05-09T16:48:52.598Z,96800.78
2023-05-09T16:51:22.749Z,96796.06
2023-05-09T16:53:51.625Z,96801.13
2023-05-09T16:56:20.034Z,96797.97
2023-05-09T16:58:49.502Z,96802.19
2023-05-09T17:01:17.568Z,96796.47
2023-05-09T17:03:46.107Z,96796.63
2023-05-09T17:06:14.686Z,96795.84
2023-05-09T17:08:44.611Z,96791.28
2023-05-09T17:11:13.345Z,96787.53
2023-05-09T17:13:42.729Z,96793.66
2023-05-09T17:16:11.486Z,96790.59
2023-05-09T17:18:39.995Z,96789.94
2023-05-09T17:21:08.593Z,96787.09
2023-05-09T17:23:36.863Z,96780.75
2023-05-09T17:26:07.306Z,96780.47
2023-05-09T17:28:36.101Z,96778.03
2023-05-09T17:31:05.850Z,96779.34
2023-05-09T17:33:34.681Z,96783.94
2023-05-09T17:36:03.148Z,96780.38
2023-05-09T17:38:31.595Z,96778.13
2023-05-09T17:41:00.003Z,96778.78
2023-05-09T17:43:33.097Z,96775.53
2023-05-09T17:46:01.479Z,96772.94
2023-05-09T17:48:30.405Z,96774.25
2023-05-09T17:50:58.917Z,96772.47
2023-05-09T17:53:27.225Z,96770.00
2023-05-09T17:55:55.438Z,96770.00
2023-05-09T17:58:24.214Z,96768.19
2023-05-09T18:00:55.551Z,96768.53
2023-05-09T18:03:23.804Z,96775.88
2023-05-09T18:05:51.802Z,96766.03
2023-05-09T18:08:20.565Z,96765.38
2023-05-09T18:10:49.245Z,96763.38
2023-05-09T18:13:18.516Z,96764.19
2023-05-09T18:15:46.809Z,96757.72
2023-05-09T18:18:17.177Z,96758.53
2023-05-09T18:20:47.591Z,96766.53
2023-05-09T18:23:16.157Z,96760.91
2023-05-09T18:25:48.521Z,96765.53
2023-05-09T18:28:17.917Z,96765.31
2023-05-09T18:30:46.445Z,96773.84
2023-05-09T18:33:16.691Z,96769.59
2023-05-09T18:35:44.779Z,96770.19
2023-05-09T18:38:13.406Z,96770.25
2023-05-09T18:40:42.876Z,96774.63
2023-05-09T18:43:12.491Z,96779.75
2023-05-09T18:45:45.293Z,96773.56
2023-05-09T18:48:13.629Z,96771.28
2023-05-09T18:50:44.194Z,96774.56
2023-05-09T18:53:12.863Z,96770.66
2023-05-09T18:55:41.748Z,96773.94
2023-05-09T18:58:10.051Z,96766.31
2023-05-09T19:00:39.512Z,96769.44
2023-05-09T19:03:08.015Z,96762.78
2023-05-09T19:05:36.485Z,96763.59
2023-05-09T19:08:06.751Z,96761.81
2023-05-09T19:10:36.661Z,96761.41
2023-05-09T19:13:08.458Z,96764.19
2023-05-09T19:15:37.412Z,96763.41
2023-05-09T19:18:06.242Z,96763.72
2023-05-09T19:20:34.617Z,96753.81
2023-05-09T19:23:03.182Z,96753.81
2023-05-09T19:25:34.076Z,96750.84
2023-05-09T19:28:02.979Z,96751.88
2023-05-09T19:30:31.612Z,96745.78
2023-05-09T19:32:59.833Z,96746.31
2023-05-09T19:35:28.581Z,96754.94
2023-05-09T19:37:56.978Z,96751.50
2023-05-09T19:40:25.383Z,96751.44
2023-05-09T19:42:55.728Z,96742.50
2023-05-09T19:45:25.077Z,96745.00
2023-05-09T19:47:55.869Z,96743.16
2023-05-09T19:50:27.996Z,96745.63
2023-05-09T19:52:57.205Z,96751.91
2023-05-09T19:55:31.089Z,96738.84
2023-05-09T19:58:01.107Z,96739.78
2023-05-09T20:00:29.545Z,96745.91
2023-05-09T20:02:58.013Z,96743.81
2023-05-09T20:05:26.618Z,96732.25
2023-05-09T20:07:54.905Z,96731.06
2023-05-09T20:10:23.278Z,96728.34
2023-05-09T20:12:53.122Z,96726.94
2023-05-09T20:15:23.494Z,96719.34
2023-05-09T20:17:52.159Z,96723.88
2023-05-09T20:20:20.633Z,96718.19
2023-05-09T20:22:49.661Z,96715.09
2023-05-09T20:25:18.668Z,96715.28
2023-05-09T20:27:47.497Z,96715.91
2023-05-09T20:30:17.487Z,96719.13
2023-05-09T20:32:48.319Z,96715.00
2023-05-09T20:36:09.803Z,96716.47
2023-05-09T20:38:39.136Z,96712.00
2023-05-09T20:41:07.718Z,96705.34
2023-05-09T20:43:36.474Z,96706.31
2023-05-09T20:46:04.830Z,96707.91
2023-05-09T20:48:34.858Z,96698.69
2023-05-09T20:51:02.978Z,96688.66
2023-05-09T20:53:32.541Z,96699.38
2023-05-09T20:56:01.329Z,96692.50
2023-05-09T20:58:31.726Z,96691.31
2023-05-09T21:01:00.259Z,96698.28
2023-05-09T21:03:28.758Z,96696.00
2023-05-09T21:05:59.590Z,96695.41
2023-05-09T21:08:28.043Z,96695.19
2023-05-09T21:10:56.410Z,96690.50
2023-05-09T21:13:24.933Z,96683.88
2023-05-09T21:15:53.405Z,96684.47
2023-05-09T21:18:22.316Z,96684.47
2023-05-09T21:20:50.689Z,96686.47
2023-05-09T21:23:20.589Z,96679.38
2023-05-09T21:25:48.741Z,96677.47
2023-05-09T21:28:17.423Z,96679.31
2023-05-09T21:30:53.394Z,96680.06
2023-05-09T21:33:21.979Z,96679.16
2023-05-09T21:35:51.137Z,96670.13
2023-05-09T21:38:21.090Z,96671.91
2023-05-09T21:40:51.458Z,96671.00
2023-05-09T21:43:20.477Z,96664.69
2023-05-09T21:45:48.576Z,96665.09
2023-05-09T21:48:16.621Z,96667.31
2023-05-09T21:50:46.124Z,96663.78
2023-05-09T21:53:14.921Z,96661.28
2023-05-09T21:55:44.606Z,96652.78
2023-05-09T21:58:12.774Z,96660.38
2023-05-09T22:00:42.075Z,96654.47
2023-05-09T22:03:10.958Z,96656.38
2023-05-09T22:05:39.385Z,96652.53
2023-05-09T22:08:07.776Z,96646.44
2023-05-09T22:10:38.085Z,96644.28
2023-05-09T22:13:08.004Z,96654.53
2023-05-09T22:15:36.165Z,96643.94
2023-05-09T22:18:04.576Z,96644.78
2023-05-09T22:20:33.316Z,96638.63
2023-05-09T22:23:01.805Z,96634.34
2023-05-09T22:25:29.899Z,96632.28
2023-05-09T22:27:58.250Z,96631.41
2023-05-09T22:30:28.063Z,96624.13
2023-05-09T22:32:56.277Z,96621.50
2023-05-09T22:35:25.096Z,96614.19
2023-05-09T22:37:53.888Z,96615.00
2023-05-09T22:40:22.002Z,96619.53
2023-05-09T22:42:50.286Z,96608.69
2023-05-09T22:45:19.846Z,96615.34
2023-05-09T22:47:50.338Z,96615.63
2023-05-09T22:50:19.251Z,96610.94
2023-05-09T22:52:47.581Z,96609.38
2023-05-09T22:55:15.747Z,96607.19
2023-05-09T22:57:44.605Z,96599.50
2023-05-09T23:00:14.712Z,96601.78
2023-05-09T23:02:43.304Z,96610.56
2023-05-09T23:05:13.125Z,96599.81
2023-05-09T23:07:41.279Z,96593.34
2023-05-09T23:10:09.955Z,96601.78
2023-05-09T23:12:38.402Z,96601.47
2023-05-09T23:15:10.089Z,96596.81
2023-05-09T23:17:38.569Z,96589.13
2023-05-09T23:20:07.931Z,96596.28
2023-05-09T23:22:37.683Z,96590.84
2023-05-09T23:25:07.301Z,96588.22
2023-05-09T23:27:35.532Z,96590.78
2023-05-09T23:30:03.773Z,96583.78
2023-05-09T23:32:32.331Z,96579.44
2023-05-09T23:35:00.962Z,96585.75
2023-05-09T23:37:29.729Z,96575.88
2023-05-09T23:39:59.390Z,96581.84
2023-05-09T23:42:27.676Z,96583.09
2023-05-09T23:44:56.043Z,96575.72
2023-05-09T23:47:24.514Z,96576.00
2023-05-09T23:49:53.301Z,96567.25
2023-05-09T23:52:21.579Z,96563.53
2023-05-09T23:54:50.375Z,96565.13
2023-05-09T23:57:19.913Z,96565.31
2023-05-09T23:59:48.526Z,96558.03
